• Join FlightAware (Why Join?)
  • Login
  • US Flag 
08:04PM EDT


 

Airport Tracker/Info


-or-


 

Live Flight TrackerFlight Track Log ✈ DAL3784 ✈ 21-Apr-2013 ✈ KATW - KDTW

Flight Track Log - Related Links

Times and Time Zones

All times are in EDT time to prevent confusion due to time zone crossing. See the DAL3784 flight status page for this flight to view local times or setup timezone preferences in your user account.

Time Position Orientation Groundspeed Altitude Reporting Facility
EDT Latitude Longitude Course Direction KTS MPH feet Rate Location/Type
05:57PM 44.2150 -88.4278 125° Southeast 218 251 5,000  Level Chicago Center
05:58PM 44.2025 -88.3217 99° East 262 302 7,300 2,340 Climbing Chicago Center
05:59PM 44.1723 -88.0115 100° East  Level FlightAware Approximate
05:59PM 44.1892 -88.2025 99° East 295 339 9,900  Level Minneapolis Center
06:00PM 44.1550 -87.8847 101° East  Level FlightAware Approximate
06:00PM 44.1744 -88.0681 99° East 341 392 11,100  Level Minneapolis Center
06:01PM 44.1369 -87.7580 101° East  Level FlightAware Approximate
06:01PM 44.1539 -87.8969 99° East 377 434 13,800  Level Minneapolis Center
06:02PM 44.1040 -87.6286 115° Southeast  Level FlightAware Approximate
06:02PM 44.1364 -87.7531 100° East 377 434 16,200  Level Minneapolis Center
06:03PM 44.0489 -87.5144 125° Southeast  Level FlightAware Approximate
06:03PM 44.1019 -87.6161 109° East 379 436 18,000  Level Minneapolis Center
06:04PM 44.0439 -87.4847 122° Southeast 392 451 19,100 1,260 Climbing Minneapolis Center
06:05PM 43.9856 -87.3483 121° Southeast 403 464 20,700 1,500 Climbing Minneapolis Center
06:06PM 43.9247 -87.2072 121° Southeast 415 478 22,200 1,080 Climbing Minneapolis Center
06:07PM 43.8642 -87.0689 121° Southeast 419 482 23,000 360 Climbing Minneapolis Center
06:08PM 43.8142 -86.9153 114° Southeast 436 502 23,000  Level Minneapolis Center
06:10PM 43.7622 -86.7583 115° Southeast 447 514 23,000  Level Minneapolis Center
06:11PM 43.7106 -86.5994 114° Southeast 453 521 23,000  Level Minneapolis Center
06:12PM 43.6581 -86.4383 114° Southeast 458 527 23,000  Level Minneapolis Center
06:13PM 43.6042 -86.2781 115° Southeast 460 529 23,000  Level Minneapolis Center
06:14PM 43.5403 -86.0825 114° Southeast 463 533 23,000  Level Minneapolis Center
06:15PM 43.4856 -85.9194 115° Southeast 465 535 23,000  Level Minneapolis Center
06:16PM 43.4306 -85.7581 115° Southeast 464 534 23,000  Level Minneapolis Center
06:17PM 43.3767 -85.5961 115° Southeast 462 532 23,000  Level Minneapolis Center
06:18PM 43.3214 -85.4358 115° Southeast 462 532 23,000  Level Minneapolis Center
06:18PM 43.2969 -85.3703 117° Southeast 473 544 23,000  Level Cleveland Center
06:19PM 43.2472 -85.2067 113° Southeast 468 539 23,000  Level Cleveland Center
06:20PM 43.2122 -85.0389 106° East 461 531 23,000  Level Cleveland Center
06:21PM 43.1811 -84.8658 104° East 461 531 23,000  Level Cleveland Center
06:22PM 43.1478 -84.6956 105° East 461 531 23,000  Level Cleveland Center
06:23PM 43.1161 -84.5256 104° East 461 531 23,000  Level Cleveland Center
06:24PM 43.0842 -84.3556 104° East 461 531 23,000 -1,080 Level Cleveland Center
06:25PM 43.0519 -84.1917 105° East 456 525 20,900 -2,400 Descending Cleveland Center
06:26PM 43.0211 -84.0394 105° East 440 506 18,300 -2,400 Descending Cleveland Center
06:27PM 42.9939 -83.8986 105° East 410 472 16,200 -2,580 Descending Cleveland Center
06:28PM 42.9508 -83.8086 123° Southeast 353 406 13,900 -2,520 Descending Cleveland Center
06:28PM 42.9386 -83.7964 144° Southeast 352 405 13,700 -1,920 Descending Cleveland Center
06:29PM 42.8667 -83.7561 158° South 332 382 12,000 -1,620 Descending Cleveland Center
06:29PM 42.8525 -83.7467 154° Southeast 324 373 12,100 -120 Climbing Cleveland Center
06:30PM 42.7867 -83.7094 157° South 291 335 11,900 -780 Descending Cleveland Center
06:31PM 42.7192 -83.6667 155° Southeast 252 290 10,800 -1,260 Descending Cleveland Center
06:32PM 42.6667 -83.5933 134° Southeast 245 282 9,300 -1,200 Descending Cleveland Center
06:33PM 42.6311 -83.5211 124° Southeast 239 275 8,200 -1,320 Descending Cleveland Center
06:34PM 42.5975 -83.4489 122° Southeast 233 268 6,800 -1,080 Descending Cleveland Center
06:35PM 42.5639 -83.3769 122° Southeast 226 260 6,100 -420 Descending Cleveland Center
06:36PM 42.5106 -83.3408 153° Southeast 220 253 6,000 -660 Descending Cleveland Center
06:37PM 42.4525 -83.3269 170° South 214 246 4,900 -1,020 Descending Cleveland Center
06:38PM 42.3942 -83.3189 174° South 194 223 4,000 -900 Descending Cleveland Center